sensor_id;sensor_type;location;lat;lon;timestamp;P1;durP1;ratioP1;P2;durP2;ratioP2
15454;SDS011;21057;51.024;7.540;2023-10-08T00:02:15;19.85;;;18.10;;
15454;SDS011;21057;51.024;7.540;2023-10-08T00:04:48;20.75;;;18.70;;
15454;SDS011;21057;51.024;7.540;2023-10-08T00:07:17;19.33;;;17.92;;
15454;SDS011;21057;51.024;7.540;2023-10-08T00:09:46;19.98;;;18.17;;
15454;SDS011;21057;51.024;7.540;2023-10-08T00:12:16;20.13;;;18.15;;
15454;SDS011;21057;51.024;7.540;2023-10-08T00:14:43;20.45;;;19.05;;
15454;SDS011;21057;51.024;7.540;2023-10-08T00:17:11;19.00;;;17.70;;
15454;SDS011;21057;51.024;7.540;2023-10-08T00:19:38;19.42;;;18.02;;
15454;SDS011;21057;51.024;7.540;2023-10-08T00:22:09;19.80;;;18.15;;
15454;SDS011;21057;51.024;7.540;2023-10-08T00:24:38;18.95;;;17.60;;
15454;SDS011;21057;51.024;7.540;2023-10-08T00:27:07;19.38;;;17.90;;
15454;SDS011;21057;51.024;7.540;2023-10-08T00:29:34;19.35;;;17.95;;
15454;SDS011;21057;51.024;7.540;2023-10-08T00:32:04;19.00;;;17.67;;
15454;SDS011;21057;51.024;7.540;2023-10-08T00:34:36;19.88;;;18.35;;
15454;SDS011;21057;51.024;7.540;2023-10-08T00:37:06;19.38;;;18.08;;
15454;SDS011;21057;51.024;7.540;2023-10-08T00:39:36;19.90;;;18.30;;
15454;SDS011;21057;51.024;7.540;2023-10-08T00:42:04;19.00;;;17.90;;
15454;SDS011;21057;51.024;7.540;2023-10-08T00:44:32;19.58;;;18.27;;
15454;SDS011;21057;51.024;7.540;2023-10-08T00:47:06;18.90;;;17.73;;
15454;SDS011;21057;51.024;7.540;2023-10-08T00:49:36;19.30;;;17.90;;
15454;SDS011;21057;51.024;7.540;2023-10-08T00:52:20;19.45;;;17.88;;
15454;SDS011;21057;51.024;7.540;2023-10-08T00:55:03;19.48;;;18.15;;
15454;SDS011;21057;51.024;7.540;2023-10-08T00:57:34;20.20;;;18.50;;
15454;SDS011;21057;51.024;7.540;2023-10-08T01:00:07;19.50;;;18.00;;
15454;SDS011;21057;51.024;7.540;2023-10-08T01:02:42;19.30;;;18.05;;
15454;SDS011;21057;51.024;7.540;2023-10-08T01:05:11;20.00;;;18.45;;
15454;SDS011;21057;51.024;7.540;2023-10-08T01:07:41;19.85;;;18.33;;
15454;SDS011;21057;51.024;7.540;2023-10-08T01:10:10;19.27;;;17.77;;
15454;SDS011;21057;51.024;7.540;2023-10-08T01:12:39;20.27;;;18.60;;
15454;SDS011;21057;51.024;7.540;2023-10-08T01:15:21;19.70;;;18.13;;
15454;SDS011;21057;51.024;7.540;2023-10-08T01:17:53;19.65;;;18.20;;
15454;SDS011;21057;51.024;7.540;2023-10-08T01:20:25;20.17;;;18.63;;
15454;SDS011;21057;51.024;7.540;2023-10-08T01:23:01;18.90;;;17.77;;
15454;SDS011;21057;51.024;7.540;2023-10-08T01:25:31;19.40;;;17.88;;
15454;SDS011;21057;51.024;7.540;2023-10-08T01:27:59;19.30;;;18.08;;
15454;SDS011;21057;51.024;7.540;2023-10-08T01:30:33;19.63;;;18.25;;
15454;SDS011;21057;51.024;7.540;2023-10-08T01:33:06;19.60;;;18.20;;
15454;SDS011;21057;51.024;7.540;2023-10-08T01:35:36;18.55;;;17.35;;
15454;SDS011;21057;51.024;7.540;2023-10-08T01:38:05;19.27;;;18.05;;
15454;SDS011;21057;51.024;7.540;2023-10-08T01:40:38;20.25;;;18.95;;
15454;SDS011;21057;51.024;7.540;2023-10-08T01:43:05;19.80;;;18.40;;
15454;SDS011;21057;51.024;7.540;2023-10-08T01:45:35;19.60;;;18.23;;
15454;SDS011;21057;51.024;7.540;2023-10-08T01:48:06;20.23;;;18.73;;
15454;SDS011;21057;51.024;7.540;2023-10-08T01:50:34;18.58;;;17.27;;
15454;SDS011;21057;51.024;7.540;2023-10-08T01:53:02;19.40;;;18.08;;
15454;SDS011;21057;51.024;7.540;2023-10-08T01:55:33;17.85;;;16.65;;
15454;SDS011;21057;51.024;7.540;2023-10-08T01:58:12;17.83;;;16.63;;
15454;SDS011;21057;51.024;7.540;2023-10-08T02:00:41;18.67;;;17.05;;
15454;SDS011;21057;51.024;7.540;2023-10-08T02:03:10;18.05;;;16.85;;
15454;SDS011;21057;51.024;7.540;2023-10-08T02:05:38;17.92;;;16.67;;
15454;SDS011;21057;51.024;7.540;2023-10-08T02:08:07;17.88;;;16.48;;
15454;SDS011;21057;51.024;7.540;2023-10-08T02:10:35;18.30;;;16.98;;
15454;SDS011;21057;51.024;7.540;2023-10-08T02:13:03;17.95;;;16.67;;
15454;SDS011;21057;51.024;7.540;2023-10-08T02:15:31;18.63;;;17.30;;
15454;SDS011;21057;51.024;7.540;2023-10-08T02:17:58;17.65;;;16.55;;
15454;SDS011;21057;51.024;7.540;2023-10-08T02:20:24;18.23;;;16.75;;
15454;SDS011;21057;51.024;7.540;2023-10-08T02:22:52;18.90;;;17.45;;
15454;SDS011;21057;51.024;7.540;2023-10-08T02:25:20;18.38;;;16.95;;
15454;SDS011;21057;51.024;7.540;2023-10-08T02:27:49;18.30;;;17.00;;
15454;SDS011;21057;51.024;7.540;2023-10-08T02:30:16;18.17;;;16.80;;
15454;SDS011;21057;51.024;7.540;2023-10-08T02:32:43;18.70;;;17.48;;
15454;SDS011;21057;51.024;7.540;2023-10-08T02:35:11;19.00;;;17.73;;
15454;SDS011;21057;51.024;7.540;2023-10-08T02:37:38;18.75;;;17.65;;
15454;SDS011;21057;51.024;7.540;2023-10-08T02:40:06;18.88;;;17.27;;
15454;SDS011;21057;51.024;7.540;2023-10-08T02:42:41;19.02;;;17.83;;
15454;SDS011;21057;51.024;7.540;2023-10-08T02:45:11;19.50;;;18.30;;
15454;SDS011;21057;51.024;7.540;2023-10-08T02:47:40;19.42;;;18.10;;
15454;SDS011;21057;51.024;7.540;2023-10-08T02:50:09;19.00;;;17.67;;
15454;SDS011;21057;51.024;7.540;2023-10-08T02:52:41;19.05;;;17.75;;
15454;SDS011;21057;51.024;7.540;2023-10-08T02:55:09;18.88;;;17.67;;
15454;SDS011;21057;51.024;7.540;2023-10-08T02:57:48;19.70;;;18.13;;
15454;SDS011;21057;51.024;7.540;2023-10-08T03:00:18;19.02;;;17.70;;
15454;SDS011;21057;51.024;7.540;2023-10-08T03:02:45;19.38;;;17.90;;
15454;SDS011;21057;51.024;7.540;2023-10-08T03:05:12;20.02;;;18.40;;
15454;SDS011;21057;51.024;7.540;2023-10-08T03:07:42;19.10;;;17.80;;
15454;SDS011;21057;51.024;7.540;2023-10-08T03:10:09;19.38;;;18.17;;
15454;SDS011;21057;51.024;7.540;2023-10-08T03:12:43;18.98;;;17.60;;
15454;SDS011;21057;51.024;7.540;2023-10-08T03:15:11;19.60;;;18.30;;
15454;SDS011;21057;51.024;7.540;2023-10-08T03:17:54;18.75;;;17.60;;
15454;SDS011;21057;51.024;7.540;2023-10-08T03:20:22;20.13;;;18.48;;
15454;SDS011;21057;51.024;7.540;2023-10-08T03:23:03;19.88;;;18.33;;
15454;SDS011;21057;51.024;7.540;2023-10-08T03:25:37;19.75;;;18.45;;
15454;SDS011;21057;51.024;7.540;2023-10-08T03:28:06;20.58;;;19.17;;
15454;SDS011;21057;51.024;7.540;2023-10-08T03:30:37;20.50;;;19.10;;
15454;SDS011;21057;51.024;7.540;2023-10-08T03:33:15;19.55;;;18.13;;
15454;SDS011;21057;51.024;7.540;2023-10-08T03:35:47;20.48;;;18.90;;
15454;SDS011;21057;51.024;7.540;2023-10-08T03:38:17;20.35;;;18.73;;
15454;SDS011;21057;51.024;7.540;2023-10-08T03:40:47;19.02;;;17.80;;
15454;SDS011;21057;51.024;7.540;2023-10-08T03:43:15;19.63;;;18.33;;
15454;SDS011;21057;51.024;7.540;2023-10-08T03:45:49;19.85;;;18.55;;
15454;SDS011;21057;51.024;7.540;2023-10-08T03:48:19;20.00;;;18.70;;
15454;SDS011;21057;51.024;7.540;2023-10-08T03:50:47;20.75;;;19.05;;
15454;SDS011;21057;51.024;7.540;2023-10-08T03:53:21;20.13;;;18.67;;
15454;SDS011;21057;51.024;7.540;2023-10-08T03:55:49;19.58;;;18.30;;
15454;SDS011;21057;51.024;7.540;2023-10-08T03:58:19;20.35;;;18.80;;
15454;SDS011;21057;51.024;7.540;2023-10-08T04:00:54;20.95;;;18.92;;
15454;SDS011;21057;51.024;7.540;2023-10-08T04:03:34;19.65;;;18.27;;
15454;SDS011;21057;51.024;7.540;2023-10-08T04:06:23;19.60;;;18.20;;
15454;SDS011;21057;51.024;7.540;2023-10-08T04:08:55;20.42;;;19.02;;
15454;SDS011;21057;51.024;7.540;2023-10-08T04:11:36;20.38;;;18.83;;
15454;SDS011;21057;51.024;7.540;2023-10-08T04:14:16;20.73;;;19.05;;
15454;SDS011;21057;51.024;7.540;2023-10-08T04:16:44;20.15;;;18.63;;
15454;SDS011;21057;51.024;7.540;2023-10-08T04:19:12;19.65;;;18.15;;
15454;SDS011;21057;51.024;7.540;2023-10-08T04:21:43;20.10;;;18.60;;
15454;SDS011;21057;51.024;7.540;2023-10-08T04:24:11;19.42;;;18.23;;
15454;SDS011;21057;51.024;7.540;2023-10-08T04:26:39;19.55;;;18.23;;
15454;SDS011;21057;51.024;7.540;2023-10-08T04:29:07;20.90;;;18.95;;
15454;SDS011;21057;51.024;7.540;2023-10-08T04:31:34;19.67;;;18.38;;
15454;SDS011;21057;51.024;7.540;2023-10-08T04:34:08;19.70;;;18.40;;
15454;SDS011;21057;51.024;7.540;2023-10-08T04:36:42;19.70;;;18.40;;
15454;SDS011;21057;51.024;7.540;2023-10-08T04:39:10;19.40;;;18.00;;
15454;SDS011;21057;51.024;7.540;2023-10-08T04:41:40;20.00;;;18.38;;
15454;SDS011;21057;51.024;7.540;2023-10-08T04:44:08;20.40;;;18.55;;
15454;SDS011;21057;51.024;7.540;2023-10-08T04:46:39;20.05;;;18.50;;
15454;SDS011;21057;51.024;7.540;2023-10-08T04:49:13;21.08;;;19.63;;
15454;SDS011;21057;51.024;7.540;2023-10-08T04:52:01;20.65;;;19.10;;
15454;SDS011;21057;51.024;7.540;2023-10-08T04:54:34;20.52;;;18.83;;
15454;SDS011;21057;51.024;7.540;2023-10-08T04:57:05;20.85;;;19.27;;
15454;SDS011;21057;51.024;7.540;2023-10-08T04:59:40;20.42;;;19.13;;
15454;SDS011;21057;51.024;7.540;2023-10-08T05:02:07;19.90;;;18.50;;
15454;SDS011;21057;51.024;7.540;2023-10-08T05:04:58;19.73;;;18.33;;
15454;SDS011;21057;51.024;7.540;2023-10-08T05:07:49;19.90;;;18.50;;
15454;SDS011;21057;51.024;7.540;2023-10-08T05:10:34;19.95;;;18.65;;
15454;SDS011;21057;51.024;7.540;2023-10-08T05:13:18;20.05;;;18.58;;
15454;SDS011;21057;51.024;7.540;2023-10-08T05:15:55;19.55;;;18.23;;
15454;SDS011;21057;51.024;7.540;2023-10-08T05:18:37;20.77;;;19.05;;
15454;SDS011;21057;51.024;7.540;2023-10-08T05:21:20;19.15;;;18.02;;
15454;SDS011;21057;51.024;7.540;2023-10-08T05:23:54;19.73;;;18.27;;
15454;SDS011;21057;51.024;7.540;2023-10-08T05:26:42;20.17;;;18.42;;
15454;SDS011;21057;51.024;7.540;2023-10-08T05:29:14;19.95;;;18.30;;
15454;SDS011;21057;51.024;7.540;2023-10-08T05:31:59;20.85;;;19.52;;
15454;SDS011;21057;51.024;7.540;2023-10-08T05:34:40;20.25;;;18.85;;
15454;SDS011;21057;51.024;7.540;2023-10-08T05:37:16;21.02;;;19.42;;
15454;SDS011;21057;51.024;7.540;2023-10-08T05:39:59;20.30;;;18.75;;
15454;SDS011;21057;51.024;7.540;2023-10-08T05:42:46;22.10;;;19.92;;
15454;SDS011;21057;51.024;7.540;2023-10-08T05:45:14;20.92;;;19.50;;
15454;SDS011;21057;51.024;7.540;2023-10-08T05:47:54;20.73;;;19.17;;
15454;SDS011;21057;51.024;7.540;2023-10-08T05:50:39;19.85;;;18.45;;
15454;SDS011;21057;51.024;7.540;2023-10-08T05:53:08;20.80;;;19.15;;
15454;SDS011;21057;51.024;7.540;2023-10-08T05:55:46;20.40;;;19.00;;
15454;SDS011;21057;51.024;7.540;2023-10-08T05:58:26;20.77;;;19.27;;
15454;SDS011;21057;51.024;7.540;2023-10-08T06:01:00;20.33;;;18.52;;
15454;SDS011;21057;51.024;7.540;2023-10-08T06:03:33;21.13;;;19.13;;
15454;SDS011;21057;51.024;7.540;2023-10-08T06:06:13;20.35;;;18.65;;
15454;SDS011;21057;51.024;7.540;2023-10-08T06:09:01;20.25;;;18.67;;
15454;SDS011;21057;51.024;7.540;2023-10-08T06:11:47;20.02;;;18.63;;
15454;SDS011;21057;51.024;7.540;2023-10-08T06:14:34;20.08;;;18.35;;
15454;SDS011;21057;51.024;7.540;2023-10-08T06:17:32;19.60;;;18.25;;
15454;SDS011;21057;51.024;7.540;2023-10-08T06:20:17;20.50;;;19.00;;
15454;SDS011;21057;51.024;7.540;2023-10-08T06:22:50;19.48;;;17.85;;
15454;SDS011;21057;51.024;7.540;2023-10-08T06:25:19;20.08;;;18.70;;
15454;SDS011;21057;51.024;7.540;2023-10-08T06:27:50;20.15;;;18.65;;
15454;SDS011;21057;51.024;7.540;2023-10-08T06:30:22;20.52;;;18.92;;
15454;SDS011;21057;51.024;7.540;2023-10-08T06:32:54;19.80;;;18.02;;
15454;SDS011;21057;51.024;7.540;2023-10-08T06:35:21;20.08;;;18.38;;
15454;SDS011;21057;51.024;7.540;2023-10-08T06:37:53;20.48;;;19.02;;
15454;SDS011;21057;51.024;7.540;2023-10-08T06:40:24;21.75;;;19.98;;
15454;SDS011;21057;51.024;7.540;2023-10-08T06:43:09;20.70;;;19.08;;
15454;SDS011;21057;51.024;7.540;2023-10-08T06:45:47;19.90;;;18.60;;
15454;SDS011;21057;51.024;7.540;2023-10-08T06:48:17;19.73;;;18.33;;
15454;SDS011;21057;51.024;7.540;2023-10-08T06:50:46;19.83;;;18.23;;
15454;SDS011;21057;51.024;7.540;2023-10-08T06:53:13;19.58;;;18.17;;
15454;SDS011;21057;51.024;7.540;2023-10-08T06:55:43;19.45;;;18.05;;
15454;SDS011;21057;51.024;7.540;2023-10-08T06:58:14;19.23;;;17.83;;
15454;SDS011;21057;51.024;7.540;2023-10-08T07:00:42;19.20;;;17.80;;
15454;SDS011;21057;51.024;7.540;2023-10-08T07:03:14;20.42;;;19.00;;
15454;SDS011;21057;51.024;7.540;2023-10-08T07:05:43;20.35;;;18.73;;
15454;SDS011;21057;51.024;7.540;2023-10-08T07:08:19;20.40;;;18.90;;
15454;SDS011;21057;51.024;7.540;2023-10-08T07:10:48;19.23;;;17.92;;
15454;SDS011;21057;51.024;7.540;2023-10-08T07:13:17;20.33;;;18.92;;
15454;SDS011;21057;51.024;7.540;2023-10-08T07:15:46;19.80;;;18.45;;
15454;SDS011;21057;51.024;7.540;2023-10-08T07:18:14;19.90;;;18.15;;
15454;SDS011;21057;51.024;7.540;2023-10-08T07:20:49;19.98;;;18.23;;
15454;SDS011;21057;51.024;7.540;2023-10-08T07:23:19;18.98;;;17.77;;
15454;SDS011;21057;51.024;7.540;2023-10-08T07:25:53;19.52;;;17.90;;
15454;SDS011;21057;51.024;7.540;2023-10-08T07:28:25;19.38;;;17.98;;
15454;SDS011;21057;51.024;7.540;2023-10-08T07:30:52;20.38;;;18.98;;
15454;SDS011;21057;51.024;7.540;2023-10-08T07:33:20;20.10;;;18.60;;
15454;SDS011;21057;51.024;7.540;2023-10-08T07:35:50;20.80;;;18.95;;
15454;SDS011;21057;51.024;7.540;2023-10-08T07:38:22;20.33;;;18.75;;
15454;SDS011;21057;51.024;7.540;2023-10-08T07:40:53;20.88;;;19.25;;
15454;SDS011;21057;51.024;7.540;2023-10-08T07:43:21;19.70;;;18.10;;
15454;SDS011;21057;51.024;7.540;2023-10-08T07:45:50;20.52;;;18.92;;
15454;SDS011;21057;51.024;7.540;2023-10-08T07:48:19;20.38;;;18.77;;
15454;SDS011;21057;51.024;7.540;2023-10-08T07:50:48;20.27;;;18.58;;
15454;SDS011;21057;51.024;7.540;2023-10-08T07:53:16;21.67;;;19.27;;
15454;SDS011;21057;51.024;7.540;2023-10-08T07:55:45;20.33;;;18.58;;
15454;SDS011;21057;51.024;7.540;2023-10-08T07:58:13;20.42;;;18.30;;
15454;SDS011;21057;51.024;7.540;2023-10-08T08:00:41;20.83;;;18.65;;
15454;SDS011;21057;51.024;7.540;2023-10-08T08:03:18;21.88;;;19.65;;
15454;SDS011;21057;51.024;7.540;2023-10-08T08:05:45;22.35;;;19.80;;
15454;SDS011;21057;51.024;7.540;2023-10-08T08:08:13;21.65;;;19.40;;
15454;SDS011;21057;51.024;7.540;2023-10-08T08:10:43;20.67;;;19.00;;
15454;SDS011;21057;51.024;7.540;2023-10-08T08:13:10;23.40;;;20.42;;
15454;SDS011;21057;51.024;7.540;2023-10-08T08:15:39;21.92;;;20.13;;
15454;SDS011;21057;51.024;7.540;2023-10-08T08:18:15;23.33;;;20.50;;
15454;SDS011;21057;51.024;7.540;2023-10-08T08:20:48;21.15;;;19.17;;
15454;SDS011;21057;51.024;7.540;2023-10-08T08:23:15;29.73;;;20.75;;
15454;SDS011;21057;51.024;7.540;2023-10-08T08:25:43;21.30;;;19.67;;
15454;SDS011;21057;51.024;7.540;2023-10-08T08:28:30;23.67;;;20.38;;
15454;SDS011;21057;51.024;7.540;2023-10-08T08:31:01;23.30;;;20.90;;
15454;SDS011;21057;51.024;7.540;2023-10-08T08:33:30;22.52;;;20.33;;
15454;SDS011;21057;51.024;7.540;2023-10-08T08:36:17;22.42;;;20.25;;
15454;SDS011;21057;51.024;7.540;2023-10-08T08:38:45;22.40;;;20.27;;
15454;SDS011;21057;51.024;7.540;2023-10-08T08:41:12;22.83;;;20.08;;
15454;SDS011;21057;51.024;7.540;2023-10-08T08:43:43;22.63;;;20.17;;
15454;SDS011;21057;51.024;7.540;2023-10-08T08:46:11;24.65;;;20.50;;
15454;SDS011;21057;51.024;7.540;2023-10-08T08:48:40;21.63;;;19.83;;
15454;SDS011;21057;51.024;7.540;2023-10-08T08:51:09;21.88;;;20.08;;
15454;SDS011;21057;51.024;7.540;2023-10-08T08:53:37;22.52;;;20.58;;
15454;SDS011;21057;51.024;7.540;2023-10-08T08:56:05;28.05;;;20.67;;
15454;SDS011;21057;51.024;7.540;2023-10-08T08:58:34;22.65;;;20.58;;
15454;SDS011;21057;51.024;7.540;2023-10-08T09:01:01;22.92;;;20.73;;
15454;SDS011;21057;51.024;7.540;2023-10-08T09:03:30;24.63;;;20.95;;
15454;SDS011;21057;51.024;7.540;2023-10-08T09:05:58;23.02;;;20.52;;
15454;SDS011;21057;51.024;7.540;2023-10-08T09:08:27;25.88;;;21.48;;
15454;SDS011;21057;51.024;7.540;2023-10-08T09:10:59;24.02;;;20.55;;
15454;SDS011;21057;51.024;7.540;2023-10-08T09:13:27;23.80;;;21.33;;
15454;SDS011;21057;51.024;7.540;2023-10-08T09:15:57;29.80;;;20.73;;
15454;SDS011;21057;51.024;7.540;2023-10-08T09:18:32;29.65;;;21.05;;
15454;SDS011;21057;51.024;7.540;2023-10-08T09:21:13;23.83;;;21.50;;
15454;SDS011;21057;51.024;7.540;2023-10-08T09:23:44;24.48;;;20.75;;
15454;SDS011;21057;51.024;7.540;2023-10-08T09:26:16;22.60;;;20.25;;
15454;SDS011;21057;51.024;7.540;2023-10-08T09:28:45;22.10;;;20.05;;
15454;SDS011;21057;51.024;7.540;2023-10-08T09:31:13;23.58;;;20.92;;
15454;SDS011;21057;51.024;7.540;2023-10-08T09:33:42;24.15;;;21.77;;
15454;SDS011;21057;51.024;7.540;2023-10-08T09:36:10;35.78;;;21.90;;
15454;SDS011;21057;51.024;7.540;2023-10-08T09:38:45;23.23;;;20.80;;
15454;SDS011;21057;51.024;7.540;2023-10-08T09:41:13;27.38;;;21.98;;
15454;SDS011;21057;51.024;7.540;2023-10-08T09:43:41;25.52;;;22.17;;
15454;SDS011;21057;51.024;7.540;2023-10-08T09:46:13;25.13;;;21.25;;
15454;SDS011;21057;51.024;7.540;2023-10-08T09:48:44;32.72;;;22.90;;
15454;SDS011;21057;51.024;7.540;2023-10-08T09:51:16;24.48;;;21.88;;
15454;SDS011;21057;51.024;7.540;2023-10-08T09:53:50;31.88;;;23.00;;
15454;SDS011;21057;51.024;7.540;2023-10-08T09:56:19;30.10;;;22.48;;
15454;SDS011;21057;51.024;7.540;2023-10-08T09:58:46;24.17;;;21.58;;
15454;SDS011;21057;51.024;7.540;2023-10-08T10:01:14;30.27;;;23.25;;
15454;SDS011;21057;51.024;7.540;2023-10-08T10:03:43;26.75;;;22.35;;
15454;SDS011;21057;51.024;7.540;2023-10-08T10:06:14;30.73;;;22.83;;
15454;SDS011;21057;51.024;7.540;2023-10-08T10:08:43;27.38;;;22.13;;
15454;SDS011;21057;51.024;7.540;2023-10-08T10:11:12;30.17;;;21.27;;
15454;SDS011;21057;51.024;7.540;2023-10-08T10:13:41;33.40;;;22.73;;
15454;SDS011;21057;51.024;7.540;2023-10-08T10:16:13;27.38;;;22.90;;
15454;SDS011;21057;51.024;7.540;2023-10-08T10:18:43;36.80;;;24.35;;
15454;SDS011;21057;51.024;7.540;2023-10-08T10:21:26;36.42;;;23.23;;
15454;SDS011;21057;51.024;7.540;2023-10-08T10:23:56;29.92;;;22.25;;
15454;SDS011;21057;51.024;7.540;2023-10-08T10:26:25;31.90;;;22.23;;
15454;SDS011;21057;51.024;7.540;2023-10-08T10:31:51;29.92;;;23.17;;
15454;SDS011;21057;51.024;7.540;2023-10-08T10:34:20;36.70;;;23.05;;
15454;SDS011;21057;51.024;7.540;2023-10-08T10:36:50;27.52;;;23.10;;
15454;SDS011;21057;51.024;7.540;2023-10-08T10:39:20;34.20;;;22.65;;
15454;SDS011;21057;51.024;7.540;2023-10-08T10:41:54;34.78;;;23.67;;
15454;SDS011;21057;51.024;7.540;2023-10-08T10:44:22;29.25;;;23.33;;
15454;SDS011;21057;51.024;7.540;2023-10-08T10:46:50;25.20;;;21.38;;
15454;SDS011;21057;51.024;7.540;2023-10-08T10:49:17;28.65;;;22.65;;
15454;SDS011;21057;51.024;7.540;2023-10-08T10:51:46;25.58;;;22.42;;
15454;SDS011;21057;51.024;7.540;2023-10-08T10:54:16;28.30;;;22.63;;
15454;SDS011;21057;51.024;7.540;2023-10-08T10:56:46;26.73;;;23.10;;
15454;SDS011;21057;51.024;7.540;2023-10-08T10:59:26;32.17;;;21.63;;
15454;SDS011;21057;51.024;7.540;2023-10-08T11:01:53;31.88;;;22.50;;
15454;SDS011;21057;51.024;7.540;2023-10-08T11:04:31;30.08;;;22.60;;
15454;SDS011;21057;51.024;7.540;2023-10-08T11:06:58;32.03;;;23.58;;
15454;SDS011;21057;51.024;7.540;2023-10-08T11:09:26;30.40;;;22.00;;
15454;SDS011;21057;51.024;7.540;2023-10-08T11:12:03;26.45;;;23.52;;
15454;SDS011;21057;51.024;7.540;2023-10-08T11:14:38;25.88;;;22.73;;
15454;SDS011;21057;51.024;7.540;2023-10-08T11:17:11;28.48;;;22.80;;
15454;SDS011;21057;51.024;7.540;2023-10-08T11:19:40;35.47;;;23.15;;
15454;SDS011;21057;51.024;7.540;2023-10-08T11:22:07;24.00;;;21.65;;
15454;SDS011;21057;51.024;7.540;2023-10-08T11:24:41;30.15;;;22.45;;
15454;SDS011;21057;51.024;7.540;2023-10-08T11:27:12;28.60;;;23.60;;
15454;SDS011;21057;51.024;7.540;2023-10-08T11:29:45;33.42;;;22.33;;
15454;SDS011;21057;51.024;7.540;2023-10-08T11:32:13;26.90;;;22.08;;
15454;SDS011;21057;51.024;7.540;2023-10-08T11:34:42;30.27;;;22.58;;
15454;SDS011;21057;51.024;7.540;2023-10-08T11:37:15;24.00;;;21.58;;
15454;SDS011;21057;51.024;7.540;2023-10-08T11:39:52;23.55;;;21.30;;
15454;SDS011;21057;51.024;7.540;2023-10-08T11:42:23;24.08;;;21.33;;
15454;SDS011;21057;51.024;7.540;2023-10-08T11:45:10;30.08;;;22.70;;
15454;SDS011;21057;51.024;7.540;2023-10-08T11:47:51;27.50;;;21.95;;
15454;SDS011;21057;51.024;7.540;2023-10-08T11:50:24;24.55;;;21.55;;
15454;SDS011;21057;51.024;7.540;2023-10-08T11:52:57;26.67;;;21.50;;
15454;SDS011;21057;51.024;7.540;2023-10-08T11:55:27;26.40;;;20.83;;
15454;SDS011;21057;51.024;7.540;2023-10-08T11:57:55;24.10;;;21.40;;
15454;SDS011;21057;51.024;7.540;2023-10-08T12:00:23;24.88;;;21.77;;
15454;SDS011;21057;51.024;7.540;2023-10-08T12:02:51;23.40;;;21.08;;
15454;SDS011;21057;51.024;7.540;2023-10-08T12:05:20;23.52;;;21.00;;
15454;SDS011;21057;51.024;7.540;2023-10-08T12:07:48;24.75;;;20.80;;
15454;SDS011;21057;51.024;7.540;2023-10-08T12:10:17;26.67;;;20.52;;
15454;SDS011;21057;51.024;7.540;2023-10-08T12:12:47;23.40;;;21.08;;
15454;SDS011;21057;51.024;7.540;2023-10-08T12:15:14;22.80;;;20.50;;
15454;SDS011;21057;51.024;7.540;2023-10-08T12:17:46;33.22;;;21.58;;
15454;SDS011;21057;51.024;7.540;2023-10-08T12:20:33;26.25;;;21.42;;
15454;SDS011;21057;51.024;7.540;2023-10-08T12:23:02;25.90;;;21.45;;
15454;SDS011;21057;51.024;7.540;2023-10-08T12:25:30;23.77;;;21.40;;
15454;SDS011;21057;51.024;7.540;2023-10-08T12:27:58;25.88;;;22.38;;
15454;SDS011;21057;51.024;7.540;2023-10-08T12:30:29;24.95;;;22.23;;
15454;SDS011;21057;51.024;7.540;2023-10-08T12:33:07;25.90;;;23.05;;
15454;SDS011;21057;51.024;7.540;2023-10-08T12:35:38;23.48;;;21.25;;
15454;SDS011;21057;51.024;7.540;2023-10-08T12:38:05;23.45;;;21.42;;
15454;SDS011;21057;51.024;7.540;2023-10-08T12:40:34;24.02;;;21.45;;
15454;SDS011;21057;51.024;7.540;2023-10-08T12:43:12;23.73;;;21.33;;
15454;SDS011;21057;51.024;7.540;2023-10-08T12:45:41;23.77;;;21.60;;
15454;SDS011;21057;51.024;7.540;2023-10-08T12:48:11;24.13;;;21.63;;
15454;SDS011;21057;51.024;7.540;2023-10-08T12:50:40;24.13;;;22.08;;
15454;SDS011;21057;51.024;7.540;2023-10-08T12:53:09;26.85;;;23.17;;
15454;SDS011;21057;51.024;7.540;2023-10-08T12:55:37;23.70;;;21.40;;
15454;SDS011;21057;51.024;7.540;2023-10-08T12:58:05;22.95;;;20.88;;
15454;SDS011;21057;51.024;7.540;2023-10-08T13:00:35;25.00;;;22.50;;
15454;SDS011;21057;51.024;7.540;2023-10-08T13:03:03;23.90;;;21.63;;
15454;SDS011;21057;51.024;7.540;2023-10-08T13:05:41;24.55;;;22.08;;
15454;SDS011;21057;51.024;7.540;2023-10-08T13:08:09;23.67;;;21.27;;
15454;SDS011;21057;51.024;7.540;2023-10-08T13:10:38;22.27;;;20.52;;
15454;SDS011;21057;51.024;7.540;2023-10-08T13:13:09;23.15;;;21.27;;
15454;SDS011;21057;51.024;7.540;2023-10-08T13:15:37;23.75;;;21.00;;
15454;SDS011;21057;51.024;7.540;2023-10-08T13:18:04;24.25;;;21.60;;
15454;SDS011;21057;51.024;7.540;2023-10-08T13:20:31;24.02;;;21.70;;
15454;SDS011;21057;51.024;7.540;2023-10-08T13:23:00;26.38;;;22.23;;
15454;SDS011;21057;51.024;7.540;2023-10-08T13:25:27;24.42;;;21.55;;
15454;SDS011;21057;51.024;7.540;2023-10-08T13:27:58;23.60;;;21.35;;
15454;SDS011;21057;51.024;7.540;2023-10-08T13:30:25;25.48;;;21.33;;
15454;SDS011;21057;51.024;7.540;2023-10-08T13:32:52;23.80;;;21.35;;
15454;SDS011;21057;51.024;7.540;2023-10-08T13:35:19;24.33;;;21.75;;
15454;SDS011;21057;51.024;7.540;2023-10-08T13:37:46;23.50;;;21.13;;
15454;SDS011;21057;51.024;7.540;2023-10-08T13:40:15;24.08;;;21.75;;
15454;SDS011;21057;51.024;7.540;2023-10-08T13:42:42;23.80;;;21.17;;
15454;SDS011;21057;51.024;7.540;2023-10-08T13:45:09;22.08;;;20.15;;
15454;SDS011;21057;51.024;7.540;2023-10-08T13:47:51;22.77;;;20.85;;
15454;SDS011;21057;51.024;7.540;2023-10-08T13:50:18;24.30;;;21.48;;
15454;SDS011;21057;51.024;7.540;2023-10-08T13:52:46;23.25;;;21.00;;
15454;SDS011;21057;51.024;7.540;2023-10-08T13:55:15;24.17;;;21.70;;
15454;SDS011;21057;51.024;7.540;2023-10-08T13:57:44;24.10;;;21.73;;
15454;SDS011;21057;51.024;7.540;2023-10-08T14:00:13;24.60;;;21.88;;
15454;SDS011;21057;51.024;7.540;2023-10-08T14:02:42;24.60;;;22.02;;
15454;SDS011;21057;51.024;7.540;2023-10-08T14:05:09;25.00;;;22.42;;
15454;SDS011;21057;51.024;7.540;2023-10-08T14:07:40;23.38;;;20.98;;
15454;SDS011;21057;51.024;7.540;2023-10-08T14:10:10;23.42;;;21.05;;
15454;SDS011;21057;51.024;7.540;2023-10-08T14:12:45;26.33;;;22.45;;
15454;SDS011;21057;51.024;7.540;2023-10-08T14:15:14;24.90;;;22.45;;
15454;SDS011;21057;51.024;7.540;2023-10-08T14:17:42;23.23;;;21.08;;
15454;SDS011;21057;51.024;7.540;2023-10-08T14:20:13;21.98;;;19.80;;
15454;SDS011;21057;51.024;7.540;2023-10-08T14:22:46;23.65;;;21.20;;
15454;SDS011;21057;51.024;7.540;2023-10-08T14:25:17;22.92;;;20.52;;
15454;SDS011;21057;51.024;7.540;2023-10-08T14:27:51;22.73;;;20.35;;
15454;SDS011;21057;51.024;7.540;2023-10-08T14:30:18;22.50;;;20.20;;
15454;SDS011;21057;51.024;7.540;2023-10-08T14:32:49;22.30;;;20.38;;
15454;SDS011;21057;51.024;7.540;2023-10-08T14:35:15;23.40;;;20.95;;
15454;SDS011;21057;51.024;7.540;2023-10-08T14:38:00;24.02;;;21.45;;
15454;SDS011;21057;51.024;7.540;2023-10-08T14:40:45;23.35;;;20.95;;
15454;SDS011;21057;51.024;7.540;2023-10-08T14:43:32;22.85;;;20.52;;
15454;SDS011;21057;51.024;7.540;2023-10-08T14:45:59;22.42;;;20.67;;
15454;SDS011;21057;51.024;7.540;2023-10-08T14:48:29;24.55;;;21.92;;
15454;SDS011;21057;51.024;7.540;2023-10-08T14:51:00;24.58;;;22.02;;